sensor_id;sensor_type;location;lat;lon;timestamp;temperature;humidity
24518;DHT22;12678;51.336;12.406;2022-12-10T00:02:20;1.90;99.90
24518;DHT22;12678;51.336;12.406;2022-12-10T00:04:45;2.00;99.90
24518;DHT22;12678;51.336;12.406;2022-12-10T00:07:11;1.90;99.90
24518;DHT22;12678;51.336;12.406;2022-12-10T00:09:37;1.80;99.90
24518;DHT22;12678;51.336;12.406;2022-12-10T00:12:02;1.80;99.90
24518;DHT22;12678;51.336;12.406;2022-12-10T00:14:28;1.70;99.90
24518;DHT22;12678;51.336;12.406;2022-12-10T00:16:53;1.70;99.90
24518;DHT22;12678;51.336;12.406;2022-12-10T00:19:19;1.80;99.90
24518;DHT22;12678;51.336;12.406;2022-12-10T00:21:45;1.90;99.90
24518;DHT22;12678;51.336;12.406;2022-12-10T00:24:11;1.90;99.90
24518;DHT22;12678;51.336;12.406;2022-12-10T00:26:38;1.70;99.90
24518;DHT22;12678;51.336;12.406;2022-12-10T00:29:05;1.70;99.90
24518;DHT22;12678;51.336;12.406;2022-12-10T00:31:34;1.70;99.90
24518;DHT22;12678;51.336;12.406;2022-12-10T00:34:02;1.60;99.90
24518;DHT22;12678;51.336;12.406;2022-12-10T00:36:31;1.50;99.90
24518;DHT22;12678;51.336;12.406;2022-12-10T00:38:57;1.60;99.90
24518;DHT22;12678;51.336;12.406;2022-12-10T00:41:23;1.70;99.90
24518;DHT22;12678;51.336;12.406;2022-12-10T00:43:49;1.60;99.90
24518;DHT22;12678;51.336;12.406;2022-12-10T00:46:16;1.70;99.90
24518;DHT22;12678;51.336;12.406;2022-12-10T00:48:43;1.80;99.90
24518;DHT22;12678;51.336;12.406;2022-12-10T00:51:19;1.80;99.90
24518;DHT22;12678;51.336;12.406;2022-12-10T00:53:47;1.60;99.90
24518;DHT22;12678;51.336;12.406;2022-12-10T00:56:14;1.70;99.90
24518;DHT22;12678;51.336;12.406;2022-12-10T00:58:41;1.70;99.90
24518;DHT22;12678;51.336;12.406;2022-12-10T01:03:47;1.70;99.90
24518;DHT22;12678;51.336;12.406;2022-12-10T01:06:34;1.60;99.90
24518;DHT22;12678;51.336;12.406;2022-12-10T01:09:05;1.80;99.90
24518;DHT22;12678;51.336;12.406;2022-12-10T01:11:36;1.80;99.90
24518;DHT22;12678;51.336;12.406;2022-12-10T01:14:03;1.70;99.90
24518;DHT22;12678;51.336;12.406;2022-12-10T01:16:29;1.70;99.90
24518;DHT22;12678;51.336;12.406;2022-12-10T01:18:55;1.80;99.90
24518;DHT22;12678;51.336;12.406;2022-12-10T01:21:22;1.80;99.90
24518;DHT22;12678;51.336;12.406;2022-12-10T01:23:49;1.80;99.90
24518;DHT22;12678;51.336;12.406;2022-12-10T01:26:18;1.70;99.90
24518;DHT22;12678;51.336;12.406;2022-12-10T01:28:44;1.80;99.90
24518;DHT22;12678;51.336;12.406;2022-12-10T01:33:40;1.70;99.90
24518;DHT22;12678;51.336;12.406;2022-12-10T01:36:12;1.70;99.90
24518;DHT22;12678;51.336;12.406;2022-12-10T01:38:38;1.60;99.90
24518;DHT22;12678;51.336;12.406;2022-12-10T01:41:05;1.60;99.90
24518;DHT22;12678;51.336;12.406;2022-12-10T01:46:14;1.70;99.90
24518;DHT22;12678;51.336;12.406;2022-12-10T01:48:40;1.60;99.90
24518;DHT22;12678;51.336;12.406;2022-12-10T01:51:06;1.80;99.90
24518;DHT22;12678;51.336;12.406;2022-12-10T01:53:32;1.70;99.90
24518;DHT22;12678;51.336;12.406;2022-12-10T01:55:58;1.70;99.90
24518;DHT22;12678;51.336;12.406;2022-12-10T01:58:24;1.60;99.90
24518;DHT22;12678;51.336;12.406;2022-12-10T02:09:42;1.90;99.90
24518;DHT22;12678;51.336;12.406;2022-12-10T02:12:20;1.80;99.90
24518;DHT22;12678;51.336;12.406;2022-12-10T02:15:12;1.90;99.90
24518;DHT22;12678;51.336;12.406;2022-12-10T02:17:55;1.90;99.90
24518;DHT22;12678;51.336;12.406;2022-12-10T02:20:35;1.80;99.90
24518;DHT22;12678;51.336;12.406;2022-12-10T02:23:24;1.90;99.90
24518;DHT22;12678;51.336;12.406;2022-12-10T02:29:16;2.00;99.90
24518;DHT22;12678;51.336;12.406;2022-12-10T02:31:49;2.00;99.90
24518;DHT22;12678;51.336;12.406;2022-12-10T02:34:16;2.00;99.90
24518;DHT22;12678;51.336;12.406;2022-12-10T02:36:44;2.10;99.90
24518;DHT22;12678;51.336;12.406;2022-12-10T02:39:13;2.10;99.90
24518;DHT22;12678;51.336;12.406;2022-12-10T02:41:47;2.10;99.90
24518;DHT22;12678;51.336;12.406;2022-12-10T02:44:15;2.10;99.90
24518;DHT22;12678;51.336;12.406;2022-12-10T02:46:44;2.20;99.90
24518;DHT22;12678;51.336;12.406;2022-12-10T02:49:12;2.20;99.90
24518;DHT22;12678;51.336;12.406;2022-12-10T02:51:39;2.20;99.90
24518;DHT22;12678;51.336;12.406;2022-12-10T02:54:07;2.30;99.90
24518;DHT22;12678;51.336;12.406;2022-12-10T02:56:56;2.20;99.90
24518;DHT22;12678;51.336;12.406;2022-12-10T02:59:40;2.30;99.90
24518;DHT22;12678;51.336;12.406;2022-12-10T03:02:16;2.20;99.90
24518;DHT22;12678;51.336;12.406;2022-12-10T03:05:02;2.20;99.90
24518;DHT22;12678;51.336;12.406;2022-12-10T03:10:06;2.10;99.90
24518;DHT22;12678;51.336;12.406;2022-12-10T03:12:39;2.10;99.90
24518;DHT22;12678;51.336;12.406;2022-12-10T03:15:09;2.10;99.90
24518;DHT22;12678;51.336;12.406;2022-12-10T03:17:37;2.10;99.90
24518;DHT22;12678;51.336;12.406;2022-12-10T03:20:06;2.20;99.90
24518;DHT22;12678;51.336;12.406;2022-12-10T03:22:34;2.10;99.90
24518;DHT22;12678;51.336;12.406;2022-12-10T03:25:02;2.10;99.90
24518;DHT22;12678;51.336;12.406;2022-12-10T03:27:29;2.10;99.90
24518;DHT22;12678;51.336;12.406;2022-12-10T03:29:56;2.10;99.90
24518;DHT22;12678;51.336;12.406;2022-12-10T03:32:26;2.10;99.90
24518;DHT22;12678;51.336;12.406;2022-12-10T03:34:54;2.00;99.90
24518;DHT22;12678;51.336;12.406;2022-12-10T03:37:22;2.10;99.90
24518;DHT22;12678;51.336;12.406;2022-12-10T03:39:48;2.10;99.90
24518;DHT22;12678;51.336;12.406;2022-12-10T03:42:14;2.10;99.90
24518;DHT22;12678;51.336;12.406;2022-12-10T03:44:40;2.00;99.90
24518;DHT22;12678;51.336;12.406;2022-12-10T03:47:09;2.20;99.90
24518;DHT22;12678;51.336;12.406;2022-12-10T03:49:35;2.10;99.90
24518;DHT22;12678;51.336;12.406;2022-12-10T03:52:01;2.10;99.90
24518;DHT22;12678;51.336;12.406;2022-12-10T03:54:26;2.10;99.90
24518;DHT22;12678;51.336;12.406;2022-12-10T03:56:52;2.10;99.90
24518;DHT22;12678;51.336;12.406;2022-12-10T03:59:18;2.20;99.90
24518;DHT22;12678;51.336;12.406;2022-12-10T04:01:44;2.10;99.90
24518;DHT22;12678;51.336;12.406;2022-12-10T04:04:10;2.10;99.90
24518;DHT22;12678;51.336;12.406;2022-12-10T04:06:40;2.10;99.90
24518;DHT22;12678;51.336;12.406;2022-12-10T04:09:06;2.20;99.90
24518;DHT22;12678;51.336;12.406;2022-12-10T04:11:32;2.10;99.90
24518;DHT22;12678;51.336;12.406;2022-12-10T04:13:58;2.00;99.90
24518;DHT22;12678;51.336;12.406;2022-12-10T04:16:42;2.00;99.90
24518;DHT22;12678;51.336;12.406;2022-12-10T04:19:10;1.90;99.90
24518;DHT22;12678;51.336;12.406;2022-12-10T04:21:37;1.90;99.90
24518;DHT22;12678;51.336;12.406;2022-12-10T04:24:24;2.00;99.90
24518;DHT22;12678;51.336;12.406;2022-12-10T04:27:21;1.90;99.90
24518;DHT22;12678;51.336;12.406;2022-12-10T04:29:47;1.90;99.90
24518;DHT22;12678;51.336;12.406;2022-12-10T04:32:13;1.90;99.90
24518;DHT22;12678;51.336;12.406;2022-12-10T04:34:39;1.90;99.90
24518;DHT22;12678;51.336;12.406;2022-12-10T04:37:05;1.90;99.90
24518;DHT22;12678;51.336;12.406;2022-12-10T04:39:31;1.90;99.90
24518;DHT22;12678;51.336;12.406;2022-12-10T04:41:57;1.90;99.90
24518;DHT22;12678;51.336;12.406;2022-12-10T04:44:24;1.90;99.90
24518;DHT22;12678;51.336;12.406;2022-12-10T04:46:49;1.90;99.90
24518;DHT22;12678;51.336;12.406;2022-12-10T04:49:16;1.90;99.90
24518;DHT22;12678;51.336;12.406;2022-12-10T04:51:42;1.90;99.90
24518;DHT22;12678;51.336;12.406;2022-12-10T04:54:08;1.90;99.90
24518;DHT22;12678;51.336;12.406;2022-12-10T04:56:34;1.90;99.90
24518;DHT22;12678;51.336;12.406;2022-12-10T04:59:00;1.90;99.90
24518;DHT22;12678;51.336;12.406;2022-12-10T05:01:27;2.00;99.90
24518;DHT22;12678;51.336;12.406;2022-12-10T05:03:53;1.90;99.90
24518;DHT22;12678;51.336;12.406;2022-12-10T05:06:20;1.90;99.90
24518;DHT22;12678;51.336;12.406;2022-12-10T05:08:46;1.90;99.90
24518;DHT22;12678;51.336;12.406;2022-12-10T05:11:14;1.90;99.90
24518;DHT22;12678;51.336;12.406;2022-12-10T05:13:40;2.00;99.90
24518;DHT22;12678;51.336;12.406;2022-12-10T05:16:08;1.90;99.90
24518;DHT22;12678;51.336;12.406;2022-12-10T05:18:35;2.00;99.90
24518;DHT22;12678;51.336;12.406;2022-12-10T05:21:02;1.90;99.90
24518;DHT22;12678;51.336;12.406;2022-12-10T05:23:28;2.00;99.90
24518;DHT22;12678;51.336;12.406;2022-12-10T05:26:15;2.00;99.90
24518;DHT22;12678;51.336;12.406;2022-12-10T05:33:44;1.90;99.90
24518;DHT22;12678;51.336;12.406;2022-12-10T05:36:11;1.90;99.90
24518;DHT22;12678;51.336;12.406;2022-12-10T05:38:37;1.90;99.90
24518;DHT22;12678;51.336;12.406;2022-12-10T05:41:12;1.80;99.90
24518;DHT22;12678;51.336;12.406;2022-12-10T05:43:38;1.80;99.90
24518;DHT22;12678;51.336;12.406;2022-12-10T05:46:06;1.80;99.90
24518;DHT22;12678;51.336;12.406;2022-12-10T05:48:33;1.80;99.90
24518;DHT22;12678;51.336;12.406;2022-12-10T05:51:21;1.70;99.90
24518;DHT22;12678;51.336;12.406;2022-12-10T05:53:47;1.70;99.90
24518;DHT22;12678;51.336;12.406;2022-12-10T05:56:15;1.70;99.90
24518;DHT22;12678;51.336;12.406;2022-12-10T05:58:42;1.80;99.90
24518;DHT22;12678;51.336;12.406;2022-12-10T06:01:17;1.80;99.90
24518;DHT22;12678;51.336;12.406;2022-12-10T06:03:43;1.80;99.90
24518;DHT22;12678;51.336;12.406;2022-12-10T06:06:09;1.80;99.90
24518;DHT22;12678;51.336;12.406;2022-12-10T06:08:35;1.70;99.90
24518;DHT22;12678;51.336;12.406;2022-12-10T06:11:02;1.80;99.90
24518;DHT22;12678;51.336;12.406;2022-12-10T06:13:28;1.80;99.90
24518;DHT22;12678;51.336;12.406;2022-12-10T06:15:54;1.80;99.90
24518;DHT22;12678;51.336;12.406;2022-12-10T06:18:19;1.70;99.90
24518;DHT22;12678;51.336;12.406;2022-12-10T06:20:46;1.70;99.90
24518;DHT22;12678;51.336;12.406;2022-12-10T06:23:11;1.60;99.90
24518;DHT22;12678;51.336;12.406;2022-12-10T06:25:40;1.70;99.90
24518;DHT22;12678;51.336;12.406;2022-12-10T06:28:06;1.70;99.90
24518;DHT22;12678;51.336;12.406;2022-12-10T06:30:33;1.70;99.90
24518;DHT22;12678;51.336;12.406;2022-12-10T06:32:59;1.70;99.90
24518;DHT22;12678;51.336;12.406;2022-12-10T06:35:24;1.70;99.90
24518;DHT22;12678;51.336;12.406;2022-12-10T06:37:50;1.70;99.90
24518;DHT22;12678;51.336;12.406;2022-12-10T06:40:16;1.70;99.90
24518;DHT22;12678;51.336;12.406;2022-12-10T06:42:42;1.60;99.90
24518;DHT22;12678;51.336;12.406;2022-12-10T06:45:08;1.60;99.90
24518;DHT22;12678;51.336;12.406;2022-12-10T06:47:33;1.50;99.90
24518;DHT22;12678;51.336;12.406;2022-12-10T06:49:59;1.50;99.90
24518;DHT22;12678;51.336;12.406;2022-12-10T06:52:25;1.50;99.90
24518;DHT22;12678;51.336;12.406;2022-12-10T06:54:50;1.50;99.90
24518;DHT22;12678;51.336;12.406;2022-12-10T06:57:16;1.60;99.90
24518;DHT22;12678;51.336;12.406;2022-12-10T06:59:42;1.60;99.90
24518;DHT22;12678;51.336;12.406;2022-12-10T07:02:09;1.50;99.90
24518;DHT22;12678;51.336;12.406;2022-12-10T07:04:35;1.60;99.90
24518;DHT22;12678;51.336;12.406;2022-12-10T07:07:01;1.60;99.90
24518;DHT22;12678;51.336;12.406;2022-12-10T07:09:26;1.60;99.90
24518;DHT22;12678;51.336;12.406;2022-12-10T07:11:52;1.60;99.90
24518;DHT22;12678;51.336;12.406;2022-12-10T07:14:18;1.60;99.90
24518;DHT22;12678;51.336;12.406;2022-12-10T07:16:43;1.60;99.90
24518;DHT22;12678;51.336;12.406;2022-12-10T07:19:10;1.50;99.90
24518;DHT22;12678;51.336;12.406;2022-12-10T07:21:39;1.50;99.90
24518;DHT22;12678;51.336;12.406;2022-12-10T07:24:16;1.60;99.90
24518;DHT22;12678;51.336;12.406;2022-12-10T07:26:44;1.50;99.90
24518;DHT22;12678;51.336;12.406;2022-12-10T07:29:13;1.50;99.90
24518;DHT22;12678;51.336;12.406;2022-12-10T07:31:39;1.50;99.90
24518;DHT22;12678;51.336;12.406;2022-12-10T07:34:06;1.60;99.90
24518;DHT22;12678;51.336;12.406;2022-12-10T07:36:31;1.60;99.90
24518;DHT22;12678;51.336;12.406;2022-12-10T07:38:57;1.60;99.90
24518;DHT22;12678;51.336;12.406;2022-12-10T07:41:26;1.70;99.90
24518;DHT22;12678;51.336;12.406;2022-12-10T07:43:52;1.70;99.90
24518;DHT22;12678;51.336;12.406;2022-12-10T07:46:23;1.70;99.90
24518;DHT22;12678;51.336;12.406;2022-12-10T07:48:49;1.70;99.90
24518;DHT22;12678;51.336;12.406;2022-12-10T07:51:16;1.60;99.90
24518;DHT22;12678;51.336;12.406;2022-12-10T07:53:42;1.60;99.90
24518;DHT22;12678;51.336;12.406;2022-12-10T07:56:09;1.60;99.90
24518;DHT22;12678;51.336;12.406;2022-12-10T07:58:35;1.60;99.90
24518;DHT22;12678;51.336;12.406;2022-12-10T08:01:08;1.50;99.90
24518;DHT22;12678;51.336;12.406;2022-12-10T08:03:34;1.40;99.90
24518;DHT22;12678;51.336;12.406;2022-12-10T08:06:09;1.50;99.90
24518;DHT22;12678;51.336;12.406;2022-12-10T08:08:36;1.50;99.90
24518;DHT22;12678;51.336;12.406;2022-12-10T08:11:05;1.60;99.90
24518;DHT22;12678;51.336;12.406;2022-12-10T08:13:32;1.60;99.90
24518;DHT22;12678;51.336;12.406;2022-12-10T08:16:07;1.60;99.90
24518;DHT22;12678;51.336;12.406;2022-12-10T08:18:33;1.50;99.90
24518;DHT22;12678;51.336;12.406;2022-12-10T08:21:07;1.60;99.90
24518;DHT22;12678;51.336;12.406;2022-12-10T08:23:33;1.60;99.90
24518;DHT22;12678;51.336;12.406;2022-12-10T08:26:03;1.40;99.90
24518;DHT22;12678;51.336;12.406;2022-12-10T08:28:29;1.30;99.90
24518;DHT22;12678;51.336;12.406;2022-12-10T08:30:54;1.30;99.90
24518;DHT22;12678;51.336;12.406;2022-12-10T08:33:20;1.40;99.90
24518;DHT22;12678;51.336;12.406;2022-12-10T08:35:46;1.40;99.90
24518;DHT22;12678;51.336;12.406;2022-12-10T08:38:11;1.50;99.90
24518;DHT22;12678;51.336;12.406;2022-12-10T08:40:41;1.50;99.90
24518;DHT22;12678;51.336;12.406;2022-12-10T08:43:07;1.50;99.90
24518;DHT22;12678;51.336;12.406;2022-12-10T08:45:36;1.50;99.90
24518;DHT22;12678;51.336;12.406;2022-12-10T08:48:02;1.60;99.90
24518;DHT22;12678;51.336;12.406;2022-12-10T08:50:28;1.60;99.90
24518;DHT22;12678;51.336;12.406;2022-12-10T08:52:54;1.60;99.90
24518;DHT22;12678;51.336;12.406;2022-12-10T08:55:19;1.60;99.90
24518;DHT22;12678;51.336;12.406;2022-12-10T08:57:45;1.70;99.90
24518;DHT22;12678;51.336;12.406;2022-12-10T09:00:11;1.70;99.90
24518;DHT22;12678;51.336;12.406;2022-12-10T09:02:38;1.70;99.90
24518;DHT22;12678;51.336;12.406;2022-12-10T09:05:05;1.80;99.90
24518;DHT22;12678;51.336;12.406;2022-12-10T09:07:30;1.80;99.90
24518;DHT22;12678;51.336;12.406;2022-12-10T09:09:56;1.80;99.90
24518;DHT22;12678;51.336;12.406;2022-12-10T09:12:21;1.80;99.90
24518;DHT22;12678;51.336;12.406;2022-12-10T09:14:47;1.70;99.90
24518;DHT22;12678;51.336;12.406;2022-12-10T09:17:13;1.80;99.90
24518;DHT22;12678;51.336;12.406;2022-12-10T09:19:38;1.80;99.90
24518;DHT22;12678;51.336;12.406;2022-12-10T09:22:04;1.80;99.90
24518;DHT22;12678;51.336;12.406;2022-12-10T09:24:30;1.70;99.90
24518;DHT22;12678;51.336;12.406;2022-12-10T09:26:55;1.70;99.90
24518;DHT22;12678;51.336;12.406;2022-12-10T09:29:21;1.70;99.90
24518;DHT22;12678;51.336;12.406;2022-12-10T09:31:50;1.70;99.90
24518;DHT22;12678;51.336;12.406;2022-12-10T09:34:16;1.70;99.90
24518;DHT22;12678;51.336;12.406;2022-12-10T09:36:42;1.70;99.90
24518;DHT22;12678;51.336;12.406;2022-12-10T09:39:07;1.70;99.90
24518;DHT22;12678;51.336;12.406;2022-12-10T09:41:47;1.70;99.90
24518;DHT22;12678;51.336;12.406;2022-12-10T09:44:47;1.80;99.90
24518;DHT22;12678;51.336;12.406;2022-12-10T09:47:15;1.70;99.90
24518;DHT22;12678;51.336;12.406;2022-12-10T09:49:50;1.70;99.90
24518;DHT22;12678;51.336;12.406;2022-12-10T09:52:21;1.80;99.90
24518;DHT22;12678;51.336;12.406;2022-12-10T09:57:28;1.80;99.90
24518;DHT22;12678;51.336;12.406;2022-12-10T09:59:56;1.90;99.90
24518;DHT22;12678;51.336;12.406;2022-12-10T10:02:26;1.90;99.90
24518;DHT22;12678;51.336;12.406;2022-12-10T10:07:31;1.80;99.90
24518;DHT22;12678;51.336;12.406;2022-12-10T10:10:16;1.90;99.90
24518;DHT22;12678;51.336;12.406;2022-12-10T10:12:45;1.90;99.90
24518;DHT22;12678;51.336;12.406;2022-12-10T10:15:16;1.90;99.90
24518;DHT22;12678;51.336;12.406;2022-12-10T10:17:44;1.90;99.90
24518;DHT22;12678;51.336;12.406;2022-12-10T10:20:13;1.80;99.90
24518;DHT22;12678;51.336;12.406;2022-12-10T10:22:40;1.80;99.90
24518;DHT22;12678;51.336;12.406;2022-12-10T10:25:16;1.80;99.90
24518;DHT22;12678;51.336;12.406;2022-12-10T10:27:43;1.70;99.90
24518;DHT22;12678;51.336;12.406;2022-12-10T10:30:20;1.80;99.90
24518;DHT22;12678;51.336;12.406;2022-12-10T10:32:52;1.70;99.90
24518;DHT22;12678;51.336;12.406;2022-12-10T10:35:26;1.70;99.90
24518;DHT22;12678;51.336;12.406;2022-12-10T10:37:57;1.80;99.90
24518;DHT22;12678;51.336;12.406;2022-12-10T10:40:40;1.90;99.90
24518;DHT22;12678;51.336;12.406;2022-12-10T10:43:06;1.90;99.90
24518;DHT22;12678;51.336;12.406;2022-12-10T10:45:42;1.80;99.90
24518;DHT22;12678;51.336;12.406;2022-12-10T10:48:14;1.90;99.90
24518;DHT22;12678;51.336;12.406;2022-12-10T10:50:42;2.00;99.90
24518;DHT22;12678;51.336;12.406;2022-12-10T10:56:00;2.00;99.90
24518;DHT22;12678;51.336;12.406;2022-12-10T10:58:30;2.00;99.90
24518;DHT22;12678;51.336;12.406;2022-12-10T11:01:07;1.90;99.90
24518;DHT22;12678;51.336;12.406;2022-12-10T11:03:35;1.90;99.90
24518;DHT22;12678;51.336;12.406;2022-12-10T11:06:06;1.90;99.90
24518;DHT22;12678;51.336;12.406;2022-12-10T11:08:32;1.80;99.90
24518;DHT22;12678;51.336;12.406;2022-12-10T11:11:06;1.70;99.90
24518;DHT22;12678;51.336;12.406;2022-12-10T11:13:37;1.90;99.90
24518;DHT22;12678;51.336;12.406;2022-12-10T11:16:19;1.90;99.90
24518;DHT22;12678;51.336;12.406;2022-12-10T11:19:00;2.00;99.90
24518;DHT22;12678;51.336;12.406;2022-12-10T11:21:34;2.00;99.90
24518;DHT22;12678;51.336;12.406;2022-12-10T11:24:09;2.10;99.90
24518;DHT22;12678;51.336;12.406;2022-12-10T11:32:26;2.00;99.90
24518;DHT22;12678;51.336;12.406;2022-12-10T11:35:23;2.00;99.90
24518;DHT22;12678;51.336;12.406;2022-12-10T11:43:51;1.90;99.90
24518;DHT22;12678;51.336;12.406;2022-12-10T11:51:53;1.90;99.90
24518;DHT22;12678;51.336;12.406;2022-12-10T11:57:32;2.00;99.90
24518;DHT22;12678;51.336;12.406;2022-12-10T12:17:11;2.00;99.90
24518;DHT22;12678;51.336;12.406;2022-12-10T12:19:40;2.10;99.90
24518;DHT22;12678;51.336;12.406;2022-12-10T12:22:16;2.10;99.90
24518;DHT22;12678;51.336;12.406;2022-12-10T12:24:44;2.00;99.90
24518;DHT22;12678;51.336;12.406;2022-12-10T12:27:23;2.00;99.90
24518;DHT22;12678;51.336;12.406;2022-12-10T12:30:17;2.00;99.90
24518;DHT22;12678;51.336;12.406;2022-12-10T12:35:38;2.00;99.90
24518;DHT22;12678;51.336;12.406;2022-12-10T12:41:05;2.10;99.90
24518;DHT22;12678;51.336;12.406;2022-12-10T12:46:02;2.00;99.90
24518;DHT22;12678;51.336;12.406;2022-12-10T12:51:12;1.90;99.90
24518;DHT22;12678;51.336;12.406;2022-12-10T12:53:41;1.90;99.90
24518;DHT22;12678;51.336;12.406;2022-12-10T12:56:10;1.90;99.90
24518;DHT22;12678;51.336;12.406;2022-12-10T12:59:20;2.00;99.90
24518;DHT22;12678;51.336;12.406;2022-12-10T13:01:56;2.00;99.90
24518;DHT22;12678;51.336;12.406;2022-12-10T13:04:24;2.00;99.90
24518;DHT22;12678;51.336;12.406;2022-12-10T13:09:49;1.90;99.90
24518;DHT22;12678;51.336;12.406;2022-12-10T13:17:36;2.00;99.90
24518;DHT22;12678;51.336;12.406;2022-12-10T13:20:25;2.00;99.90
24518;DHT22;12678;51.336;12.406;2022-12-10T13:31:18;2.10;99.90
24518;DHT22;12678;51.336;12.406;2022-12-10T13:34:50;2.00;99.90
24518;DHT22;12678;51.336;12.406;2022-12-10T13:39:33;2.20;99.90
24518;DHT22;12678;51.336;12.406;2022-12-10T13:45:01;2.20;99.90
24518;DHT22;12678;51.336;12.406;2022-12-10T13:50:17;2.30;99.90
24518;DHT22;12678;51.336;12.406;2022-12-10T13:55:55;2.30;99.90
24518;DHT22;12678;51.336;12.406;2022-12-10T13:58:26;2.30;99.90
24518;DHT22;12678;51.336;12.406;2022-12-10T14:01:10;2.30;99.90
24518;DHT22;12678;51.336;12.406;2022-12-10T14:06:44;2.20;99.90
24518;DHT22;12678;51.336;12.406;2022-12-10T14:11:43;2.20;99.90
24518;DHT22;12678;51.336;12.406;2022-12-10T14:14:15;2.20;99.90
24518;DHT22;12678;51.336;12.406;2022-12-10T14:16:42;2.10;99.90
24518;DHT22;12678;51.336;12.406;2022-12-10T14:19:13;2.20;99.90
24518;DHT22;12678;51.336;12.406;2022-12-10T14:21:41;2.30;99.90
24518;DHT22;12678;51.336;12.406;2022-12-10T14:24:35;2.20;99.90
24518;DHT22;12678;51.336;12.406;2022-12-10T14:27:13;2.30;99.90
24518;DHT22;12678;51.336;12.406;2022-12-10T14:29:47;2.30;99.90
24518;DHT22;12678;51.336;12.406;2022-12-10T14:32:16;2.30;99.90
24518;DHT22;12678;51.336;12.406;2022-12-10T14:34:53;2.20;99.90
24518;DHT22;12678;51.336;12.406;2022-12-10T14:37:23;2.30;99.90
24518;DHT22;12678;51.336;12.406;2022-12-10T14:39:50;2.30;99.90
24518;DHT22;12678;51.336;12.406;2022-12-10T14:42:16;2.30;99.90
24518;DHT22;12678;51.336;12.406;2022-12-10T14:44:43;2.20;99.90
24518;DHT22;12678;51.336;12.406;2022-12-10T14:47:17;2.10;99.90
24518;DHT22;12678;51.336;12.406;2022-12-10T14:49:45;2.10;99.90
24518;DHT22;12678;51.336;12.406;2022-12-10T14:52:15;2.00;99.90
24518;DHT22;12678;51.336;12.406;2022-12-10T14:54:41;2.00;99.90
24518;DHT22;12678;51.336;12.406;2022-12-10T14:57:10;2.00;99.90
24518;DHT22;12678;51.336;12.406;2022-12-10T15:02:30;2.00;99.90
24518;DHT22;12678;51.336;12.406;2022-12-10T15:04:58;1.90;99.90
24518;DHT22;12678;51.336;12.406;2022-12-10T15:07:26;1.90;99.90
24518;DHT22;12678;51.336;12.406;2022-12-10T15:09:55;1.80;99.90
24518;DHT22;12678;51.336;12.406;2022-12-10T15:12:36;1.80;99.90
24518;DHT22;12678;51.336;12.406;2022-12-10T15:15:13;1.90;99.90
24518;DHT22;12678;51.336;12.406;2022-12-10T15:17:43;1.90;99.90
24518;DHT22;12678;51.336;12.406;2022-12-10T15:20:20;1.80;99.90
24518;DHT22;12678;51.336;12.406;2022-12-10T15:22:46;1.60;99.90
24518;DHT22;12678;51.336;12.406;2022-12-10T15:25:27;1.80;99.90
24518;DHT22;12678;51.336;12.406;2022-12-10T15:27:59;1.80;99.90
24518;DHT22;12678;51.336;12.406;2022-12-10T15:30:35;1.80;99.90
24518;DHT22;12678;51.336;12.406;2022-12-10T15:33:01;1.70;99.90
24518;DHT22;12678;51.336;12.406;2022-12-10T15:35:27;1.80;99.90
24518;DHT22;12678;51.336;12.406;2022-12-10T15:37:53;1.70;99.90
24518;DHT22;12678;51.336;12.406;2022-12-10T15:40:29;1.70;99.90
24518;DHT22;12678;51.336;12.406;2022-12-10T15:43:10;1.70;99.90
24518;DHT22;12678;51.336;12.406;2022-12-10T15:45:40;1.70;99.90
24518;DHT22;12678;51.336;12.406;2022-12-10T15:48:11;1.80;99.90
24518;DHT22;12678;51.336;12.406;2022-12-10T15:50:38;1.80;99.90
24518;DHT22;12678;51.336;12.406;2022-12-10T15:53:12;1.70;99.90
24518;DHT22;12678;51.336;12.406;2022-12-10T15:55:38;1.80;99.90
24518;DHT22;12678;51.336;12.406;2022-12-10T15:58:11;1.80;99.90
24518;DHT22;12678;51.336;12.406;2022-12-10T16:00:37;1.80;99.90
24518;DHT22;12678;51.336;12.406;2022-12-10T16:03:06;1.80;99.90
24518;DHT22;12678;51.336;12.406;2022-12-10T16:05:37;1.80;99.90
24518;DHT22;12678;51.336;12.406;2022-12-10T16:10:43;1.80;99.90
24518;DHT22;12678;51.336;12.406;2022-12-10T16:13:16;1.70;99.90
24518;DHT22;12678;51.336;12.406;2022-12-10T16:16:06;1.80;99.90
24518;DHT22;12678;51.336;12.406;2022-12-10T16:18:32;1.80;99.90
24518;DHT22;12678;51.336;12.406;2022-12-10T16:21:01;1.80;99.90
24518;DHT22;12678;51.336;12.406;2022-12-10T16:23:27;1.80;99.90
24518;DHT22;12678;51.336;12.406;2022-12-10T16:25:52;1.80;99.90
24518;DHT22;12678;51.336;12.406;2022-12-10T16:28:20;1.80;99.90
24518;DHT22;12678;51.336;12.406;2022-12-10T16:30:48;1.80;99.90
24518;DHT22;12678;51.336;12.406;2022-12-10T16:33:16;1.80;99.90
24518;DHT22;12678;51.336;12.406;2022-12-10T16:35:43;1.70;99.90
24518;DHT22;12678;51.336;12.406;2022-12-10T16:38:09;1.80;99.90
24518;DHT22;12678;51.336;12.406;2022-12-10T16:40:36;1.70;99.90
24518;DHT22;12678;51.336;12.406;2022-12-10T16:43:01;1.70;99.90
24518;DHT22;12678;51.336;12.406;2022-12-10T16:45:31;1.70;99.90
24518;DHT22;12678;51.336;12.406;2022-12-10T16:47:58;1.70;99.90
24518;DHT22;12678;51.336;12.406;2022-12-10T16:50:24;1.70;99.90
24518;DHT22;12678;51.336;12.406;2022-12-10T16:52:52;1.70;99.90
24518;DHT22;12678;51.336;12.406;2022-12-10T16:55:21;1.50;99.90
24518;DHT22;12678;51.336;12.406;2022-12-10T16:57:47;1.50;99.90
24518;DHT22;12678;51.336;12.406;2022-12-10T17:00:15;1.50;99.90
24518;DHT22;12678;51.336;12.406;2022-12-10T17:02:43;1.60;99.90
24518;DHT22;12678;51.336;12.406;2022-12-10T17:05:27;1.50;99.90
24518;DHT22;12678;51.336;12.406;2022-12-10T17:07:54;1.30;99.90
24518;DHT22;12678;51.336;12.406;2022-12-10T17:10:19;1.30;99.90
24518;DHT22;12678;51.336;12.406;2022-12-10T17:13:10;1.30;99.90
24518;DHT22;12678;51.336;12.406;2022-12-10T17:15:37;1.20;99.90
24518;DHT22;12678;51.336;12.406;2022-12-10T17:18:03;1.20;99.90
24518;DHT22;12678;51.336;12.406;2022-12-10T17:20:29;1.20;99.90
24518;DHT22;12678;51.336;12.406;2022-12-10T17:22:55;1.20;99.90
24518;DHT22;12678;51.336;12.406;2022-12-10T17:25:20;1.10;99.90
24518;DHT22;12678;51.336;12.406;2022-12-10T17:27:46;1.10;99.90
24518;DHT22;12678;51.336;12.406;2022-12-10T17:30:13;1.10;99.90
24518;DHT22;12678;51.336;12.406;2022-12-10T17:32:39;1.10;99.90
24518;DHT22;12678;51.336;12.406;2022-12-10T17:35:05;1.10;99.90
24518;DHT22;12678;51.336;12.406;2022-12-10T17:37:34;1.10;99.90
24518;DHT22;12678;51.336;12.406;2022-12-10T17:40:00;1.20;99.90
24518;DHT22;12678;51.336;12.406;2022-12-10T17:42:25;1.20;99.90
24518;DHT22;12678;51.336;12.406;2022-12-10T17:44:51;1.20;99.90
24518;DHT22;12678;51.336;12.406;2022-12-10T17:47:24;1.20;99.90
24518;DHT22;12678;51.336;12.406;2022-12-10T17:49:50;1.30;99.90